createdAt,value
2022-09-06T00:01:29.258Z,100501.84
2022-09-06T00:03:58.516Z,100501.59
2022-09-06T00:06:26.388Z,100514.53
2022-09-06T00:08:54.244Z,100509.31
2022-09-06T00:11:22.531Z,100498.00
2022-09-06T00:13:50.560Z,100508.47
2022-09-06T00:16:20.880Z,100502.13
2022-09-06T00:18:48.880Z,100510.91
2022-09-06T00:21:21.263Z,100497.13
2022-09-06T00:23:49.167Z,100493.00
2022-09-06T00:26:17.310Z,100490.19
2022-09-06T00:28:45.717Z,100494.28
2022-09-06T00:31:15.962Z,100508.56
2022-09-06T00:33:44.129Z,100507.94
2022-09-06T00:36:13.486Z,100503.50
2022-09-06T00:38:43.454Z,100498.28
2022-09-06T00:41:14.232Z,100494.44
2022-09-06T00:43:42.728Z,100493.63
2022-09-06T00:46:13.267Z,100501.84
2022-09-06T00:48:42.314Z,100488.03
2022-09-06T00:51:13.681Z,100490.00
2022-09-06T00:53:43.040Z,100481.78
2022-09-06T00:56:11.334Z,100493.19
2022-09-06T00:58:39.658Z,100496.72
2022-09-06T01:01:08.050Z,100501.13
2022-09-06T01:03:37.189Z,100505.56
2022-09-06T01:06:15.994Z,100502.28
2022-09-06T01:09:00.015Z,100500.09
2022-09-06T01:11:57.348Z,100503.44
2022-09-06T01:14:37.938Z,100496.38
2022-09-06T01:17:17.695Z,100499.09
2022-09-06T01:20:09.355Z,100500.50
2022-09-06T01:22:58.493Z,100490.84
2022-09-06T01:25:39.551Z,100502.94
2022-09-06T01:28:28.941Z,100509.75
2022-09-06T01:31:06.186Z,100521.00
2022-09-06T01:33:42.527Z,100502.28
2022-09-06T01:36:14.145Z,100513.44
2022-09-06T01:38:42.338Z,100512.59
2022-09-06T01:41:10.998Z,100516.75
2022-09-06T01:43:43.470Z,100506.78
2022-09-06T01:46:18.278Z,100508.38
2022-09-06T01:49:05.788Z,100511.66
2022-09-06T01:51:42.688Z,100505.91
2022-09-06T01:54:27.330Z,100493.47
2022-09-06T01:57:05.556Z,100500.63
2022-09-06T01:59:58.639Z,100492.88
2022-09-06T02:02:33.140Z,100503.94
2022-09-06T02:05:04.797Z,100507.47
2022-09-06T02:07:35.181Z,100522.59
2022-09-06T02:10:09.449Z,100655.22
2022-09-06T02:12:41.745Z,100650.97
2022-09-06T02:15:15.651Z,100558.19
2022-09-06T02:17:49.833Z,100621.59
2022-09-06T02:20:21.677Z,100616.63
2022-09-06T02:22:52.454Z,100588.22
2022-09-06T02:25:25.640Z,100589.31
2022-09-06T02:27:54.399Z,100582.44
2022-09-06T02:30:24.113Z,100580.47
2022-09-06T02:32:57.370Z,100590.69
2022-09-06T02:35:25.492Z,100589.88
2022-09-06T02:37:53.451Z,100578.53
2022-09-06T02:40:21.610Z,100582.38
2022-09-06T02:42:49.510Z,100575.16
2022-09-06T02:45:17.420Z,100576.50
2022-09-06T02:47:46.582Z,100569.06
2022-09-06T02:50:15.320Z,100561.59
2022-09-06T02:52:43.187Z,100552.78
2022-09-06T02:55:11.300Z,100532.66
2022-09-06T02:57:39.435Z,100523.00
2022-09-06T03:00:08.524Z,100515.56
2022-09-06T03:02:36.535Z,100511.69
2022-09-06T03:05:06.621Z,100521.81
2022-09-06T03:07:34.530Z,100517.13
2022-09-06T03:10:02.494Z,100530.13
2022-09-06T03:12:30.279Z,100529.00
2022-09-06T03:14:58.212Z,100529.00
2022-09-06T03:17:26.136Z,100509.44
2022-09-06T03:19:54.351Z,100503.56
2022-09-06T03:22:23.618Z,100508.28
2022-09-06T03:24:51.767Z,100510.50
2022-09-06T03:27:19.703Z,100503.13
2022-09-06T03:29:48.042Z,100506.47
2022-09-06T03:32:16.246Z,100491.31
2022-09-06T03:34:44.131Z,100483.56
2022-09-06T03:37:12.285Z,100467.06
2022-09-06T03:39:41.751Z,100461.53
2022-09-06T03:42:09.781Z,100437.91
2022-09-06T03:44:37.872Z,100447.56
2022-09-06T03:47:06.440Z,100468.75
2022-09-06T03:49:34.367Z,100463.00
2022-09-06T03:52:02.782Z,100461.38
2022-09-06T03:54:30.851Z,100463.63
2022-09-06T03:57:00.093Z,100460.06
2022-09-06T03:59:28.004Z,100460.91
2022-09-06T04:01:56.007Z,100453.47
2022-09-06T04:04:23.994Z,100452.88
2022-09-06T04:06:51.834Z,100452.31
2022-09-06T04:09:19.790Z,100447.31
2022-09-06T04:11:47.736Z,100445.66
2022-09-06T04:14:17.061Z,100468.28
2022-09-06T04:16:45.020Z,100475.75
2022-09-06T04:19:13.039Z,100473.28
2022-09-06T04:21:40.902Z,100465.03
2022-09-06T04:24:09.008Z,100478.00
2022-09-06T04:26:36.883Z,100481.59
2022-09-06T04:29:05.015Z,100475.25
2022-09-06T04:31:34.850Z,100482.38
2022-09-06T04:34:02.751Z,100471.94
2022-09-06T04:36:30.642Z,100480.75
2022-09-06T04:38:58.503Z,100484.06
2022-09-06T04:41:26.400Z,100484.06
2022-09-06T04:43:54.399Z,100483.78
2022-09-06T04:46:24.913Z,100481.28
2022-09-06T04:48:55.465Z,100489.84
2022-09-06T04:51:24.643Z,100485.69
2022-09-06T04:53:52.786Z,100486.19
2022-09-06T04:56:23.097Z,100476.78
2022-09-06T04:58:53.762Z,100494.09
2022-09-06T05:01:21.760Z,100491.34
2022-09-06T05:03:52.175Z,100491.53
2022-09-06T05:06:25.525Z,100497.59
2022-09-06T05:08:53.839Z,100477.47
2022-09-06T05:11:21.733Z,100486.28
2022-09-06T05:16:18.310Z,100498.00
2022-09-06T05:18:46.259Z,100501.59
2022-09-06T05:21:14.198Z,100480.69
2022-09-06T05:23:43.990Z,100488.34
2022-09-06T05:26:12.084Z,100488.31
2022-09-06T05:28:39.955Z,100501.47
2022-09-06T05:31:10.695Z,100495.72
2022-09-06T05:33:39.271Z,100495.50
2022-09-06T05:36:08.186Z,100499.88
2022-09-06T05:38:36.394Z,100496.09
2022-09-06T05:41:06.032Z,100503.81
2022-09-06T05:43:34.024Z,100515.13
2022-09-06T05:46:02.135Z,100528.94
2022-09-06T05:48:36.055Z,100525.94
2022-09-06T05:51:07.007Z,100526.00
2022-09-06T05:53:36.491Z,100531.28
2022-09-06T05:56:07.017Z,100526.63
2022-09-06T05:58:34.997Z,100542.09
2022-09-06T06:01:08.054Z,100539.66
2022-09-06T06:03:36.031Z,100550.09
2022-09-06T06:06:03.973Z,100556.19
2022-09-06T06:08:32.046Z,100551.00
2022-09-06T06:11:01.403Z,100542.72
2022-09-06T06:13:35.148Z,100548.50
2022-09-06T06:16:04.423Z,100554.31
2022-09-06T06:18:32.400Z,100559.56
2022-09-06T06:21:12.308Z,100555.16
2022-09-06T06:23:41.505Z,100560.66
2022-09-06T06:26:10.937Z,100561.75
2022-09-06T06:28:41.009Z,100558.44
2022-09-06T06:31:12.127Z,100560.63
2022-09-06T06:33:40.881Z,100564.81
2022-09-06T06:36:21.723Z,100567.03
2022-09-06T06:38:50.907Z,100565.88
2022-09-06T06:41:21.314Z,100569.50
2022-09-06T06:43:53.164Z,100567.00
2022-09-06T06:46:22.265Z,100563.16
2022-09-06T06:48:54.555Z,100563.72
2022-09-06T06:51:25.677Z,100569.50
2022-09-06T06:53:54.069Z,100563.72
2022-09-06T06:56:24.774Z,100563.97
2022-09-06T06:58:57.638Z,100567.59
2022-09-06T07:01:27.412Z,100552.16
2022-09-06T07:03:55.772Z,100566.19
2022-09-06T07:09:12.729Z,100574.41
2022-09-06T07:11:40.660Z,100568.31
2022-09-06T07:14:09.971Z,100567.88
2022-09-06T07:16:37.902Z,100570.09
2022-09-06T07:19:05.994Z,100527.59
2022-09-06T07:21:37.503Z,100568.00
2022-09-06T07:24:09.246Z,100570.56
2022-09-06T07:26:39.700Z,100574.63
2022-09-06T07:29:09.804Z,100576.84
2022-09-06T07:34:27.089Z,100577.41
2022-09-06T07:36:55.121Z,100574.66
2022-09-06T07:39:24.426Z,100579.34
2022-09-06T07:41:52.372Z,100582.69
2022-09-06T07:44:21.640Z,100576.41
2022-09-06T07:46:50.033Z,100579.69
2022-09-06T07:49:18.113Z,100576.81
2022-09-06T07:51:46.025Z,100583.97
2022-09-06T07:54:30.030Z,100576.03
2022-09-06T07:56:58.608Z,100585.53
2022-09-06T07:59:28.120Z,100585.41
2022-09-06T08:01:56.121Z,100588.50
2022-09-06T08:04:24.196Z,100580.97
2022-09-06T08:09:41.578Z,100584.09
2022-09-06T08:12:09.773Z,100582.78
2022-09-06T08:14:39.199Z,100582.94
2022-09-06T08:17:07.228Z,100576.94
2022-09-06T08:19:35.512Z,100561.78
2022-09-06T08:22:03.529Z,100547.69
2022-09-06T08:24:31.765Z,100579.84
2022-09-06T08:26:59.726Z,100570.66
2022-09-06T08:29:27.904Z,100575.97
2022-09-06T08:31:57.375Z,100562.72
2022-09-06T08:34:25.466Z,100574.75
2022-09-06T08:36:53.571Z,100578.72
2022-09-06T08:39:21.820Z,100574.44
2022-09-06T08:41:54.176Z,100570.41
2022-09-06T08:47:15.859Z,100561.03
2022-09-06T08:49:46.230Z,100568.84
2022-09-06T08:53:06.222Z,100565.38
2022-09-06T08:55:38.192Z,100557.22
2022-09-06T08:58:29.055Z,100552.34
2022-09-06T09:01:01.891Z,100551.13
2022-09-06T09:03:34.262Z,100553.13
2022-09-06T09:06:05.314Z,100550.06
2022-09-06T09:08:40.845Z,100551.88
2022-09-06T09:11:11.490Z,100547.22
2022-09-06T09:13:44.801Z,100542.78
2022-09-06T09:16:12.851Z,100547.44
2022-09-06T09:18:45.567Z,100542.59
2022-09-06T09:21:14.580Z,100543.72
2022-09-06T09:23:42.588Z,100535.88
2022-09-06T09:26:15.236Z,100532.88
2022-09-06T09:29:04.857Z,100530.81
2022-09-06T09:31:38.617Z,100521.34
2022-09-06T09:34:12.416Z,100525.47
2022-09-06T09:36:41.235Z,100527.00
2022-09-06T09:39:13.033Z,100526.09
2022-09-06T09:41:43.677Z,100509.41
2022-09-06T09:44:18.514Z,100508.16
2022-09-06T09:46:46.618Z,100496.25
2022-09-06T09:49:28.958Z,100491.97
2022-09-06T09:52:07.177Z,100491.66
2022-09-06T09:54:38.507Z,100484.44
2022-09-06T09:57:11.858Z,100487.50
2022-09-06T09:59:45.383Z,100484.84
2022-09-06T10:02:23.145Z,100485.16
2022-09-06T10:04:54.936Z,100483.31
2022-09-06T10:07:24.839Z,100483.06
2022-09-06T10:10:00.290Z,100486.38
2022-09-06T10:12:32.456Z,100482.53
2022-09-06T10:15:02.488Z,100477.78
2022-09-06T10:17:34.561Z,100471.00
2022-09-06T10:20:08.673Z,100465.22
2022-09-06T10:22:47.152Z,100471.66
2022-09-06T10:25:49.701Z,100462.53
2022-09-06T10:28:36.470Z,100463.78
2022-09-06T10:31:31.783Z,100449.16
2022-09-06T10:34:08.691Z,100462.97
2022-09-06T10:36:40.831Z,100465.06
2022-09-06T10:39:24.068Z,100461.06
2022-09-06T10:42:10.112Z,100453.94
2022-09-06T10:44:55.488Z,100454.03
2022-09-06T10:47:33.465Z,100446.09
2022-09-06T10:50:05.102Z,100447.59
2022-09-06T10:52:40.177Z,100455.13
2022-09-06T10:55:12.663Z,100451.75
2022-09-06T11:00:37.076Z,100440.09
2022-09-06T11:06:08.501Z,100419.13
2022-09-06T11:11:23.254Z,100429.63
2022-09-06T11:13:51.381Z,100422.56
2022-09-06T11:16:23.713Z,100429.78
2022-09-06T11:18:57.915Z,100426.53
2022-09-06T11:21:48.071Z,100430.44
2022-09-06T11:24:26.019Z,100422.22
2022-09-06T11:27:02.806Z,100415.84
2022-09-06T11:29:33.345Z,100420.44
2022-09-06T11:32:18.647Z,100412.91
2022-09-06T11:34:55.900Z,100397.66
2022-09-06T11:37:27.335Z,100413.25
2022-09-06T11:43:13.850Z,100406.94
2022-09-06T11:45:45.452Z,100400.22
2022-09-06T11:48:49.463Z,100403.66
2022-09-06T11:51:36.761Z,100398.16
2022-09-06T11:54:28.061Z,100395.03
2022-09-06T11:57:02.174Z,100395.16
2022-09-06T11:59:49.127Z,100389.28
2022-09-06T12:02:36.347Z,100377.94
2022-09-06T12:05:23.408Z,100392.31
2022-09-06T12:08:34.145Z,100388.69
2022-09-06T12:11:27.052Z,100381.81
2022-09-06T12:14:03.092Z,100384.91
2022-09-06T12:17:08.924Z,100374.88
2022-09-06T12:19:44.289Z,100373.53
2022-09-06T12:22:53.174Z,100368.69
2022-09-06T12:25:54.706Z,100371.44
2022-09-06T12:28:41.547Z,100368.91
2022-09-06T12:31:31.957Z,100371.38
2022-09-06T12:34:06.340Z,100377.34
2022-09-06T12:36:34.682Z,100366.66
2022-09-06T12:39:05.663Z,100346.88
2022-09-06T12:41:43.255Z,100354.81
2022-09-06T12:44:12.946Z,100353.00
2022-09-06T12:46:48.674Z,100349.28
2022-09-06T12:49:20.448Z,100341.50
2022-09-06T12:51:48.749Z,100325.81
2022-09-06T12:54:21.857Z,100339.69
2022-09-06T12:56:50.418Z,100327.94
2022-09-06T12:59:20.567Z,100335.59
2022-09-06T13:01:57.319Z,100332.47
2022-09-06T13:04:33.863Z,100330.94
2022-09-06T13:07:04.193Z,100329.91
2022-09-06T13:09:33.186Z,100319.78
2022-09-06T13:12:07.847Z,100313.44
2022-09-06T13:14:36.685Z,100316.84
2022-09-06T13:17:06.102Z,100309.00
2022-09-06T13:19:36.149Z,100300.81
2022-09-06T13:22:07.431Z,100305.22
2022-09-06T13:24:47.123Z,100294.00
2022-09-06T13:27:26.601Z,100301.63
2022-09-06T13:29:59.461Z,100293.13
2022-09-06T13:32:29.488Z,100295.78
2022-09-06T13:34:59.719Z,100304.91
2022-09-06T13:37:29.663Z,100304.31
2022-09-06T13:39:58.643Z,100302.25
2022-09-06T13:42:29.453Z,100295.50
2022-09-06T13:45:02.132Z,100283.75
2022-09-06T13:47:31.946Z,100290.06
2022-09-06T13:50:00.367Z,100294.63
2022-09-06T13:52:28.383Z,100303.50
2022-09-06T13:54:56.369Z,100286.34
2022-09-06T13:57:24.801Z,100283.69
2022-09-06T13:59:52.737Z,100267.00
2022-09-06T14:02:20.909Z,100272.00
2022-09-06T14:04:50.154Z,100275.25
2022-09-06T14:07:18.081Z,100270.47
2022-09-06T14:09:45.987Z,100258.44
2022-09-06T14:12:13.928Z,100269.19
2022-09-06T14:14:42.114Z,100254.22
2022-09-06T14:17:10.283Z,100254.66
2022-09-06T14:19:38.307Z,100254.88
2022-09-06T14:22:08.310Z,100240.53
2022-09-06T14:24:36.346Z,100242.56
2022-09-06T14:27:05.488Z,100225.53
2022-09-06T14:29:34.336Z,100236.84
2022-09-06T14:32:02.759Z,100240.53
2022-09-06T14:34:31.059Z,100236.91
2022-09-06T14:36:58.874Z,100232.31
2022-09-06T14:39:28.356Z,100232.53
2022-09-06T14:41:56.364Z,100226.91
2022-09-06T14:44:24.377Z,100227.44
2022-09-06T14:46:53.435Z,100222.69
2022-09-06T14:49:21.656Z,100206.91
2022-09-06T14:51:49.670Z,100205.69
2022-09-06T14:54:18.733Z,100209.34
2022-09-06T14:56:48.239Z,100198.53
2022-09-06T14:59:16.631Z,100187.22
2022-09-06T15:01:44.779Z,100198.19
2022-09-06T15:04:13.127Z,100191.03
2022-09-06T15:06:47.202Z,100189.53
2022-09-06T15:09:16.089Z,100186.97
2022-09-06T15:11:46.252Z,100195.63
2022-09-06T15:14:17.856Z,100196.03
2022-09-06T15:16:46.044Z,100187.66
2022-09-06T15:19:14.503Z,100188.25
2022-09-06T15:21:45.527Z,100176.09
2022-09-06T15:24:13.837Z,100182.88
2022-09-06T15:26:43.218Z,100189.84
2022-09-06T15:29:12.690Z,100187.09
2022-09-06T15:31:43.126Z,100179.31
2022-09-06T15:34:12.033Z,100203.09
2022-09-06T15:36:40.066Z,100185.94
2022-09-06T15:39:08.008Z,100204.34
2022-09-06T15:41:39.625Z,100184.66
2022-09-06T15:44:10.589Z,100210.44
2022-09-06T15:46:45.848Z,100205.47
2022-09-06T15:49:15.835Z,100206.16
2022-09-06T15:51:44.613Z,100208.25
2022-09-06T15:54:14.021Z,100208.94
2022-09-06T15:56:41.511Z,100203.09
2022-09-06T15:59:09.781Z,100206.81
2022-09-06T16:01:38.076Z,100209.66
2022-09-06T16:04:07.771Z,100213.00
2022-09-06T16:06:38.499Z,100209.84
2022-09-06T16:09:08.053Z,100200.34
2022-09-06T16:11:36.946Z,100210.53
2022-09-06T16:14:06.696Z,100206.84
2022-09-06T16:16:35.138Z,100209.16
2022-09-06T16:19:03.183Z,100221.47
2022-09-06T16:21:34.377Z,100226.91
2022-09-06T16:24:04.625Z,100210.91
2022-09-06T16:26:34.335Z,100228.66
2022-09-06T16:29:04.479Z,100226.28
2022-09-06T16:31:39.176Z,100225.59
2022-09-06T16:34:08.426Z,100227.78
2022-09-06T16:36:38.697Z,100232.59
2022-09-06T16:39:07.659Z,100240.22
2022-09-06T16:41:40.370Z,100234.69
2022-09-06T16:44:08.879Z,100211.75
2022-09-06T16:46:39.961Z,100194.88
2022-09-06T16:49:08.264Z,100214.78
2022-09-06T16:51:37.887Z,100220.44
2022-09-06T16:54:06.109Z,100222.06
2022-09-06T16:56:35.928Z,100220.72
2022-09-06T16:59:15.161Z,100232.06
2022-09-06T17:01:44.456Z,100247.88
2022-09-06T17:04:14.262Z,100269.06
2022-09-06T17:09:31.205Z,100280.28
2022-09-06T17:11:59.263Z,100292.84
2022-09-06T17:14:28.043Z,100294.03
2022-09-06T17:17:04.829Z,100307.88
2022-09-06T17:19:36.850Z,100317.03
2022-09-06T17:22:06.468Z,100344.03
2022-09-06T17:24:34.739Z,100356.97
2022-09-06T17:27:02.987Z,100347.94
2022-09-06T17:29:31.281Z,100351.19
2022-09-06T17:31:59.502Z,100356.72
2022-09-06T17:34:28.116Z,100357.34
2022-09-06T17:36:56.602Z,100387.00
2022-09-06T17:39:29.023Z,100411.41
2022-09-06T17:41:58.826Z,100403.19
2022-09-06T17:44:27.794Z,100408.84
2022-09-06T17:47:12.113Z,100402.03
2022-09-06T17:49:41.218Z,100391.56
2022-09-06T17:52:09.599Z,100365.41
2022-09-06T17:54:39.092Z,100392.97
2022-09-06T17:57:07.151Z,100393.25
2022-09-06T17:59:36.105Z,100406.28
2022-09-06T18:02:04.897Z,100394.25
2022-09-06T18:04:32.916Z,100404.97
2022-09-06T18:07:00.945Z,100408.53
2022-09-06T18:09:29.131Z,100413.53
2022-09-06T18:11:59.137Z,100417.94
2022-09-06T18:14:28.553Z,100416.31
2022-09-06T18:16:56.966Z,100413.00
2022-09-06T18:19:25.659Z,100414.94
2022-09-06T18:21:54.174Z,100406.13
2022-09-06T18:24:22.239Z,100395.94
2022-09-06T18:26:50.383Z,100390.44
2022-09-06T18:29:20.802Z,100375.84
2022-09-06T18:31:48.934Z,100378.84
2022-09-06T18:34:17.160Z,100374.16
2022-09-06T18:36:45.331Z,100361.47
2022-09-06T18:39:13.474Z,100346.34
2022-09-06T18:41:58.889Z,100329.03
2022-09-06T18:44:32.270Z,100327.66
2022-09-06T18:47:02.221Z,100315.56
2022-09-06T18:49:32.345Z,100309.22
2022-09-06T18:52:01.113Z,100296.31
2022-09-06T18:54:29.478Z,100270.41
2022-09-06T18:56:57.758Z,100275.41
2022-09-06T18:59:26.229Z,100244.00
2022-09-06T19:01:55.749Z,100245.34
2022-09-06T19:04:24.155Z,100242.09
2022-09-06T19:06:52.208Z,100228.56
2022-09-06T19:09:20.386Z,100238.50
2022-09-06T19:11:51.544Z,100226.69
2022-09-06T19:14:19.864Z,100226.13
2022-09-06T19:16:50.034Z,100233.25
2022-09-06T19:19:19.625Z,100240.16
2022-09-06T19:21:47.642Z,100238.19
2022-09-06T19:24:16.279Z,100228.81
2022-09-06T19:26:45.453Z,100226.94
2022-09-06T19:29:15.561Z,100225.53
2022-09-06T19:31:44.898Z,100211.22
2022-09-06T19:34:15.726Z,100222.00
2022-09-06T19:36:45.915Z,100200.50
2022-09-06T19:39:15.891Z,100208.25
2022-09-06T19:41:46.587Z,100211.25
2022-09-06T19:44:15.358Z,100215.09
2022-09-06T19:46:46.185Z,100213.75
2022-09-06T19:49:15.310Z,100212.09
2022-09-06T19:51:45.214Z,100217.06
2022-09-06T19:54:15.570Z,100203.28
2022-09-06T19:56:44.478Z,100200.84
2022-09-06T19:59:13.449Z,100202.47
2022-09-06T20:01:43.214Z,100190.94
2022-09-06T20:04:13.008Z,100203.31
2022-09-06T20:06:41.267Z,100202.19
2022-09-06T20:09:10.622Z,100206.88
2022-09-06T20:11:41.349Z,100211.53
2022-09-06T20:14:09.876Z,100218.44
2022-09-06T20:16:41.710Z,100215.69
2022-09-06T20:19:12.979Z,100218.69
2022-09-06T20:21:41.301Z,100215.13
2022-09-06T20:24:09.570Z,100215.13
2022-09-06T20:26:38.886Z,100212.94
2022-09-06T20:29:07.955Z,100208.00
2022-09-06T20:31:37.872Z,100212.66
2022-09-06T20:34:07.394Z,100213.50
2022-09-06T20:36:35.581Z,100217.59
2022-09-06T20:39:04.893Z,100216.50
2022-09-06T20:41:33.724Z,100218.16
2022-09-06T20:44:03.684Z,100229.94
2022-09-06T20:46:33.816Z,100225.47
2022-09-06T20:49:04.749Z,100216.97
2022-09-06T20:51:34.092Z,100231.53
2022-09-06T20:54:02.759Z,100222.72
2022-09-06T20:56:33.154Z,100230.41
2022-09-06T20:59:04.585Z,100232.00
2022-09-06T21:01:36.017Z,100237.81
2022-09-06T21:04:05.994Z,100227.84
2022-09-06T21:06:35.536Z,100230.34
2022-09-06T21:09:04.801Z,100229.53
2022-09-06T21:11:33.160Z,100229.75
2022-09-06T21:14:01.259Z,100229.53
2022-09-06T21:16:31.417Z,100241.59
2022-09-06T21:19:01.413Z,100246.31
2022-09-06T21:21:30.961Z,100233.66
2022-09-06T21:24:00.598Z,100235.34
2022-09-06T21:26:28.533Z,100235.06
2022-09-06T21:28:56.447Z,100237.81
2022-09-06T21:31:25.909Z,100238.34
2022-09-06T21:33:56.874Z,100233.63
2022-09-06T21:36:29.155Z,100236.38
2022-09-06T21:38:59.129Z,100236.44
2022-09-06T21:41:28.079Z,100238.06
2022-09-06T21:43:58.126Z,100223.22
2022-09-06T21:46:32.315Z,100219.31
2022-09-06T21:49:04.346Z,100217.63
2022-09-06T21:51:33.457Z,100229.22
2022-09-06T21:54:04.796Z,100226.44
2022-09-06T21:56:33.886Z,100222.06
2022-09-06T21:59:01.910Z,100218.19
2022-09-06T22:01:32.619Z,100227.53
2022-09-06T22:04:02.281Z,100219.28
2022-09-06T22:06:32.119Z,100223.13
2022-09-06T22:09:01.801Z,100226.94
2022-09-06T22:11:31.943Z,100219.50
2022-09-06T22:14:00.877Z,100217.88
2022-09-06T22:16:29.450Z,100212.13
2022-09-06T22:21:45.467Z,100218.41
2022-09-06T22:24:14.243Z,100212.91
2022-09-06T22:26:43.061Z,100205.44
2022-09-06T22:29:13.596Z,100211.28
2022-09-06T22:31:41.903Z,100214.88
2022-09-06T22:34:10.344Z,100200.56
2022-09-06T22:36:39.002Z,100207.94
2022-09-06T22:39:09.445Z,100210.47
2022-09-06T22:41:37.831Z,100204.41
2022-09-06T22:44:06.062Z,100206.13
2022-09-06T22:46:34.388Z,100197.09
2022-09-06T22:49:04.033Z,100196.53
2022-09-06T22:51:32.062Z,100191.88
2022-09-06T22:54:00.056Z,100199.53
2022-09-06T22:56:29.358Z,100191.31
2022-09-06T22:58:57.435Z,100184.47
2022-09-06T23:01:25.932Z,100183.63
2022-09-06T23:03:54.017Z,100164.41
2022-09-06T23:06:22.374Z,100159.47
2022-09-06T23:08:50.366Z,100150.69
2022-09-06T23:11:19.662Z,100145.41
2022-09-06T23:13:48.937Z,100155.84
2022-09-06T23:16:19.626Z,100167.69
2022-09-06T23:18:48.450Z,100174.47
2022-09-06T23:21:19.423Z,100179.72
2022-09-06T23:23:48.257Z,100182.75
2022-09-06T23:26:17.809Z,100195.09
2022-09-06T23:28:45.979Z,100197.06
2022-09-06T23:31:16.757Z,100203.13
2022-09-06T23:33:45.304Z,100206.38
2022-09-06T23:36:14.689Z,100208.03
2022-09-06T23:38:43.706Z,100200.34
2022-09-06T23:41:12.234Z,100194.00
2022-09-06T23:43:41.653Z,100194.25
2022-09-06T23:46:11.285Z,100190.94
2022-09-06T23:48:40.965Z,100197.78
2022-09-06T23:51:09.152Z,100200.22
2022-09-06T23:53:37.345Z,100205.19
2022-09-06T23:56:05.769Z,100202.50
2022-09-06T23:58:33.837Z,100201.41
